createdAt,value
2022-11-19T00:00:30.310Z,84.19
2022-11-19T00:03:00.027Z,83.93
2022-11-19T00:05:29.780Z,84.41
2022-11-19T00:07:59.484Z,84.16
2022-11-19T00:10:31.839Z,84.16
2022-11-19T00:12:58.999Z,84.82
2022-11-19T00:15:28.744Z,84.14
2022-11-19T00:18:00.561Z,83.75
2022-11-19T00:20:30.615Z,84.27
2022-11-19T00:23:00.761Z,84.72
2022-11-19T00:25:33.664Z,84.79
2022-11-19T00:28:03.390Z,85.11
2022-11-19T00:30:47.589Z,84.86
2022-11-19T00:33:18.059Z,84.73
2022-11-19T00:35:47.823Z,84.73
2022-11-19T00:38:17.553Z,84.16
2022-11-19T00:40:49.913Z,84.40
2022-11-19T00:43:32.270Z,84.83
2022-11-19T00:46:02.011Z,84.80
2022-11-19T00:48:31.780Z,84.88
2022-11-19T00:51:01.604Z,84.61
2022-11-19T00:53:31.442Z,84.69
2022-11-19T00:56:06.643Z,85.36
2022-11-19T00:58:36.446Z,85.50
2022-11-19T01:01:06.610Z,85.22
2022-11-19T01:03:37.484Z,85.17
2022-11-19T01:06:08.170Z,85.47
2022-11-19T01:08:41.314Z,85.28
2022-11-19T01:11:16.733Z,85.40
2022-11-19T01:13:46.668Z,85.90
2022-11-19T01:16:18.434Z,85.56
2022-11-19T01:18:50.076Z,85.61
2022-11-19T01:21:21.196Z,85.82
2022-11-19T01:23:51.128Z,86.15
2022-11-19T01:26:23.915Z,85.58
2022-11-19T01:28:54.289Z,85.79
2022-11-19T01:31:25.655Z,85.38
2022-11-19T01:33:55.910Z,85.20
2022-11-19T01:36:27.094Z,85.24
2022-11-19T01:38:57.255Z,84.94
2022-11-19T01:41:31.245Z,85.80
2022-11-19T01:44:03.460Z,85.66
2022-11-19T01:46:35.980Z,84.97
2022-11-19T01:49:08.950Z,85.08
2022-11-19T01:51:41.610Z,84.92
2022-11-19T01:54:16.534Z,84.71
2022-11-19T01:56:49.416Z,85.14
2022-11-19T01:59:21.842Z,84.70
2022-11-19T02:01:51.919Z,84.59
2022-11-19T02:04:23.265Z,85.07
2022-11-19T02:06:53.310Z,85.29
2022-11-19T02:09:23.381Z,85.66
2022-11-19T02:12:23.649Z,84.92
2022-11-19T02:15:18.656Z,85.67
2022-11-19T02:18:05.127Z,85.79
2022-11-19T02:20:47.080Z,85.22
2022-11-19T02:23:51.821Z,84.65
2022-11-19T02:26:46.170Z,84.37
2022-11-19T02:29:28.159Z,84.81
2022-11-19T02:32:05.589Z,84.35
2022-11-19T02:34:39.406Z,84.42
2022-11-19T02:37:15.814Z,83.51
2022-11-19T02:39:51.403Z,83.72
2022-11-19T02:42:26.714Z,83.86
2022-11-19T02:45:02.473Z,84.34
2022-11-19T02:47:41.284Z,85.27
2022-11-19T02:50:14.422Z,84.79
2022-11-19T02:52:46.545Z,84.60
2022-11-19T02:55:17.189Z,84.99
2022-11-19T02:57:52.697Z,84.30
2022-11-19T03:00:35.076Z,84.65
2022-11-19T03:03:23.236Z,84.55
2022-11-19T03:05:56.605Z,84.63
2022-11-19T03:08:26.638Z,84.71
2022-11-19T03:11:08.022Z,84.30
2022-11-19T03:14:01.121Z,84.62
2022-11-19T03:16:45.077Z,84.55
2022-11-19T03:19:30.495Z,83.87
2022-11-19T03:22:05.335Z,83.94
2022-11-19T03:24:39.066Z,84.40
2022-11-19T03:27:15.862Z,83.67
2022-11-19T03:29:49.678Z,83.63
2022-11-19T03:32:23.566Z,83.27
2022-11-19T03:35:02.563Z,83.39
2022-11-19T03:37:37.794Z,83.99
2022-11-19T03:40:10.837Z,83.54
2022-11-19T03:42:42.770Z,83.21
2022-11-19T03:45:16.572Z,82.91
2022-11-19T03:47:50.620Z,83.34
2022-11-19T03:50:27.948Z,82.64
2022-11-19T03:53:02.876Z,82.79
2022-11-19T03:55:38.207Z,82.96
2022-11-19T03:58:10.463Z,82.73
2022-11-19T04:00:40.570Z,82.84
2022-11-19T04:03:10.595Z,82.63
2022-11-19T04:05:42.958Z,82.23
2022-11-19T04:08:12.728Z,81.85
2022-11-19T04:10:42.471Z,82.56
2022-11-19T04:13:12.314Z,82.98
2022-11-19T04:15:42.044Z,82.50
2022-11-19T04:18:11.794Z,82.43
2022-11-19T04:20:45.576Z,82.05
2022-11-19T04:23:15.304Z,82.53
2022-11-19T04:25:48.757Z,81.68
2022-11-19T04:28:18.441Z,81.82
2022-11-19T04:30:48.213Z,81.48
2022-11-19T04:33:17.980Z,81.79
2022-11-19T04:35:50.394Z,81.92
2022-11-19T04:38:20.087Z,81.61
2022-11-19T04:40:49.958Z,81.51
2022-11-19T04:43:19.742Z,81.72
2022-11-19T04:45:49.792Z,81.43
2022-11-19T04:48:19.532Z,81.79
2022-11-19T04:50:52.027Z,81.63
2022-11-19T04:53:21.816Z,81.76
2022-11-19T04:55:51.558Z,81.69
2022-11-19T04:58:21.343Z,81.64
2022-11-19T05:00:51.269Z,81.79
2022-11-19T05:03:21.157Z,80.83
2022-11-19T05:05:53.609Z,80.96
2022-11-19T05:08:24.386Z,80.92
2022-11-19T05:10:54.373Z,81.34
2022-11-19T05:13:24.289Z,81.55
2022-11-19T05:15:54.018Z,82.09
2022-11-19T05:18:23.873Z,81.73
2022-11-19T05:20:56.257Z,82.25
2022-11-19T05:23:26.326Z,83.10
2022-11-19T05:25:56.096Z,83.17
2022-11-19T05:28:37.925Z,83.69
2022-11-19T05:31:08.933Z,83.72
2022-11-19T05:33:38.678Z,83.51
2022-11-19T05:36:11.765Z,82.80
2022-11-19T05:38:41.513Z,82.96
2022-11-19T05:41:11.272Z,82.57
2022-11-19T05:43:41.026Z,82.16
2022-11-19T05:46:10.755Z,82.33
2022-11-19T05:48:40.508Z,82.09
2022-11-19T05:51:16.269Z,82.81
2022-11-19T05:53:46.477Z,82.85
2022-11-19T05:56:16.296Z,82.54
2022-11-19T05:58:46.220Z,82.37
2022-11-19T06:01:17.688Z,82.89
2022-11-19T06:03:47.435Z,82.58
2022-11-19T06:06:19.833Z,82.33
2022-11-19T06:08:51.228Z,82.19
2022-11-19T06:11:33.517Z,81.82
2022-11-19T06:14:03.668Z,81.88
2022-11-19T06:16:33.614Z,81.84
2022-11-19T06:19:03.355Z,81.20
2022-11-19T06:21:35.785Z,81.23
2022-11-19T06:24:05.569Z,81.31
2022-11-19T06:26:35.361Z,81.00
2022-11-19T06:29:05.442Z,81.07
2022-11-19T06:31:35.554Z,81.20
2022-11-19T06:34:09.292Z,81.35
2022-11-19T06:36:45.092Z,80.95
2022-11-19T06:39:19.333Z,81.31
2022-11-19T06:42:15.229Z,81.43
2022-11-19T06:44:45.017Z,82.16
2022-11-19T06:47:18.243Z,81.87
2022-11-19T06:49:48.036Z,81.63
2022-11-19T06:52:23.834Z,81.82
2022-11-19T06:54:57.298Z,81.41
2022-11-19T06:57:30.248Z,81.58
2022-11-19T07:00:03.227Z,81.59
2022-11-19T07:02:35.115Z,81.57
2022-11-19T07:05:05.222Z,81.56
2022-11-19T07:07:39.680Z,81.61
2022-11-19T07:10:12.202Z,81.38
2022-11-19T07:12:41.999Z,80.59
2022-11-19T07:15:13.153Z,80.99
2022-11-19T07:17:43.086Z,81.02
2022-11-19T07:20:14.169Z,81.11
2022-11-19T07:22:46.592Z,80.50
2022-11-19T07:25:16.457Z,85.48
2022-11-19T07:27:48.798Z,81.96
2022-11-19T07:30:22.394Z,80.31
2022-11-19T07:32:52.342Z,79.77
2022-11-19T07:35:23.230Z,79.95
2022-11-19T07:37:55.643Z,79.60
2022-11-19T07:40:25.603Z,79.84
2022-11-19T07:42:53.825Z,80.19
2022-11-19T07:45:25.075Z,79.65
2022-11-19T07:47:54.914Z,79.52
2022-11-19T07:50:28.258Z,79.80
2022-11-19T07:53:03.472Z,79.42
2022-11-19T07:55:37.314Z,80.02
2022-11-19T07:58:08.176Z,80.36
2022-11-19T08:00:39.046Z,81.07
2022-11-19T08:03:12.958Z,82.10
2022-11-19T08:05:46.204Z,82.37
2022-11-19T08:08:19.626Z,82.43
2022-11-19T08:10:49.435Z,82.58
2022-11-19T08:13:19.241Z,83.24
2022-11-19T08:15:50.052Z,83.13
2022-11-19T08:18:17.415Z,82.89
2022-11-19T08:20:48.789Z,82.55
2022-11-19T08:23:21.332Z,82.33
2022-11-19T08:25:53.062Z,92.67
2022-11-19T08:28:22.950Z,100.00
2022-11-19T08:30:53.907Z,86.08
2022-11-19T08:33:29.962Z,79.77
2022-11-19T08:36:01.764Z,79.59
2022-11-19T08:38:38.463Z,80.50
2022-11-19T08:41:21.622Z,80.59
2022-11-19T08:43:51.411Z,81.16
2022-11-19T08:46:21.250Z,80.61
2022-11-19T08:48:53.073Z,81.81
2022-11-19T08:51:22.889Z,82.91
2022-11-19T08:53:56.965Z,82.89
2022-11-19T08:56:30.295Z,82.57
2022-11-19T08:59:02.999Z,83.19
2022-11-19T09:01:33.683Z,83.07
2022-11-19T09:04:03.582Z,82.64
2022-11-19T09:06:38.309Z,82.77
2022-11-19T09:09:12.845Z,82.64
2022-11-19T09:11:43.246Z,82.95
2022-11-19T09:14:14.353Z,82.92
2022-11-19T09:16:44.223Z,82.54
2022-11-19T09:19:14.163Z,82.40
2022-11-19T09:21:44.019Z,81.76
2022-11-19T09:24:18.754Z,81.61
2022-11-19T09:26:52.628Z,81.55
2022-11-19T09:29:23.288Z,81.47
2022-11-19T09:31:53.158Z,81.20
2022-11-19T09:34:26.120Z,81.41
2022-11-19T09:36:56.078Z,81.27
2022-11-19T09:39:29.546Z,80.90
2022-11-19T09:42:04.953Z,81.26
2022-11-19T09:44:48.874Z,81.50
2022-11-19T09:47:30.514Z,81.52
2022-11-19T09:50:09.248Z,81.69
2022-11-19T09:52:46.787Z,81.17
2022-11-19T09:55:25.348Z,80.52
2022-11-19T09:57:58.997Z,80.22
2022-11-19T10:00:31.119Z,79.39
2022-11-19T10:03:04.074Z,78.85
2022-11-19T10:05:44.007Z,78.29
2022-11-19T10:08:28.505Z,78.30
2022-11-19T10:11:14.420Z,77.74
2022-11-19T10:13:52.970Z,77.96
2022-11-19T10:16:35.729Z,77.80
2022-11-19T10:19:17.700Z,78.02
2022-11-19T10:21:57.258Z,78.26
2022-11-19T10:24:37.241Z,77.93
2022-11-19T10:27:14.414Z,77.88
2022-11-19T10:29:44.442Z,77.81
2022-11-19T10:32:25.214Z,77.86
2022-11-19T10:35:03.234Z,76.53
2022-11-19T10:37:38.167Z,76.12
2022-11-19T10:40:15.062Z,76.50
2022-11-19T10:42:54.156Z,76.32
2022-11-19T10:45:27.607Z,76.37
2022-11-19T10:48:09.595Z,75.92
2022-11-19T10:50:40.575Z,75.79
2022-11-19T10:53:19.107Z,75.08
2022-11-19T10:55:54.719Z,73.77
2022-11-19T10:58:35.043Z,73.41
2022-11-19T11:01:07.797Z,73.49
2022-11-19T11:03:46.949Z,72.27
2022-11-19T11:06:16.897Z,72.49
2022-11-19T11:08:54.372Z,72.89
2022-11-19T11:11:49.027Z,73.18
2022-11-19T11:14:37.817Z,73.79
2022-11-19T11:17:21.575Z,73.30
2022-11-19T11:20:00.161Z,72.76
2022-11-19T11:22:30.996Z,73.54
2022-11-19T11:25:07.282Z,74.06
2022-11-19T11:27:45.197Z,74.19
2022-11-19T11:30:22.293Z,75.21
2022-11-19T11:32:52.098Z,75.96
2022-11-19T11:35:34.360Z,75.67
2022-11-19T11:38:05.940Z,75.31
2022-11-19T11:40:35.790Z,75.01
2022-11-19T11:43:07.699Z,74.71
2022-11-19T11:45:43.813Z,74.36
2022-11-19T11:48:23.048Z,71.93
2022-11-19T11:50:54.046Z,72.40
2022-11-19T11:53:32.727Z,72.53
2022-11-19T11:56:06.374Z,72.13
2022-11-19T11:58:37.287Z,72.96
2022-11-19T12:01:18.440Z,71.77
2022-11-19T12:04:00.177Z,71.25
2022-11-19T12:06:38.535Z,71.90
2022-11-19T12:09:16.590Z,72.00
2022-11-19T12:11:58.505Z,72.15
2022-11-19T12:14:32.038Z,71.63
2022-11-19T12:17:21.306Z,71.60
2022-11-19T12:20:16.611Z,70.90
2022-11-19T12:23:00.906Z,70.92
2022-11-19T12:25:37.930Z,70.97
2022-11-19T12:28:22.894Z,70.65
2022-11-19T12:31:07.127Z,70.10
2022-11-19T12:34:04.563Z,68.83
2022-11-19T12:36:48.484Z,69.37
2022-11-19T12:39:33.733Z,69.86
2022-11-19T12:42:34.164Z,69.32
2022-11-19T12:45:15.312Z,68.45
2022-11-19T12:48:07.741Z,68.56
2022-11-19T12:50:51.077Z,68.01
2022-11-19T12:53:48.888Z,68.22
2022-11-19T12:56:32.885Z,69.25
2022-11-19T12:59:13.574Z,67.71
2022-11-19T13:01:47.984Z,68.00
2022-11-19T13:04:22.231Z,67.49
2022-11-19T13:07:01.253Z,67.63
2022-11-19T13:09:41.000Z,68.36
2022-11-19T13:12:16.285Z,67.75
2022-11-19T13:14:54.627Z,66.61
2022-11-19T13:17:31.398Z,71.25
2022-11-19T13:20:05.715Z,66.98
2022-11-19T13:22:39.976Z,66.62
2022-11-19T13:25:21.641Z,66.95
2022-11-19T13:27:54.024Z,66.69
2022-11-19T13:30:26.835Z,67.03
2022-11-19T13:33:06.147Z,67.00
2022-11-19T13:35:43.322Z,67.49
2022-11-19T13:38:23.653Z,67.29
2022-11-19T13:40:57.194Z,67.08
2022-11-19T13:43:42.780Z,67.15
2022-11-19T13:46:23.903Z,66.64
2022-11-19T13:49:04.374Z,66.46
2022-11-19T13:51:39.646Z,65.70
2022-11-19T13:54:25.525Z,65.41
2022-11-19T13:57:00.203Z,65.66
2022-11-19T13:59:35.420Z,65.51
2022-11-19T14:02:30.158Z,64.32
2022-11-19T14:05:37.310Z,62.52
2022-11-19T14:08:25.230Z,63.55
2022-11-19T14:11:16.409Z,62.86
2022-11-19T14:14:03.955Z,62.28
2022-11-19T14:16:55.689Z,61.15
2022-11-19T14:19:44.473Z,61.94
2022-11-19T14:22:48.838Z,61.50
2022-11-19T14:25:56.451Z,61.50
2022-11-19T14:28:51.297Z,61.28
2022-11-19T14:31:23.364Z,62.61
2022-11-19T14:34:05.530Z,62.65
2022-11-19T14:36:46.427Z,63.27
2022-11-19T14:39:26.013Z,63.88
2022-11-19T14:42:15.411Z,63.60
2022-11-19T14:44:48.720Z,64.30
2022-11-19T14:47:37.648Z,64.02
2022-11-19T14:50:11.996Z,64.55
2022-11-19T14:52:54.276Z,64.62
2022-11-19T14:55:26.317Z,65.00
2022-11-19T14:58:01.629Z,65.18
2022-11-19T15:00:38.143Z,65.33
2022-11-19T15:03:16.147Z,65.30
2022-11-19T15:05:50.130Z,65.33
2022-11-19T15:08:31.567Z,64.79
2022-11-19T15:11:10.365Z,64.25
2022-11-19T15:13:41.909Z,64.61
2022-11-19T15:16:21.876Z,64.61
2022-11-19T15:19:19.114Z,64.99
2022-11-19T15:22:31.558Z,65.10
2022-11-19T15:25:29.203Z,65.93
2022-11-19T15:28:15.633Z,65.69
2022-11-19T15:31:20.225Z,65.48
2022-11-19T15:34:35.055Z,65.77
2022-11-19T15:37:26.146Z,67.08
2022-11-19T15:39:59.911Z,66.66
2022-11-19T15:42:35.495Z,67.35
2022-11-19T15:45:11.047Z,67.89
2022-11-19T15:47:47.298Z,67.93
2022-11-19T15:50:23.666Z,67.90
2022-11-19T15:53:02.844Z,68.79
2022-11-19T15:55:34.244Z,69.78
2022-11-19T15:58:15.122Z,69.79
2022-11-19T16:00:48.312Z,70.62
2022-11-19T16:03:21.623Z,71.13
2022-11-19T16:06:05.273Z,70.67
2022-11-19T16:08:36.064Z,71.65
2022-11-19T16:11:20.694Z,72.58
2022-11-19T16:14:07.326Z,72.79
2022-11-19T16:16:53.566Z,72.04
2022-11-19T16:19:29.248Z,72.67
2022-11-19T16:22:08.505Z,72.41
2022-11-19T16:24:52.962Z,72.58
2022-11-19T16:27:26.316Z,72.78
2022-11-19T16:29:57.436Z,73.67
2022-11-19T16:32:30.281Z,73.16
2022-11-19T16:35:12.874Z,72.51
2022-11-19T16:37:45.811Z,72.86
2022-11-19T16:40:20.515Z,72.90
2022-11-19T16:42:51.794Z,72.91
2022-11-19T16:45:25.193Z,73.45
2022-11-19T16:47:58.214Z,74.00
2022-11-19T16:50:33.771Z,74.75
2022-11-19T16:53:07.372Z,71.66
2022-11-19T16:55:42.967Z,72.22
2022-11-19T16:58:22.176Z,72.91
2022-11-19T17:00:55.772Z,73.22
2022-11-19T17:03:39.597Z,73.13
2022-11-19T17:06:11.854Z,73.18
2022-11-19T17:08:44.417Z,73.31
2022-11-19T17:11:30.397Z,73.34
2022-11-19T17:14:00.219Z,73.64
2022-11-19T17:16:30.092Z,73.96
2022-11-19T17:19:16.608Z,73.51
2022-11-19T17:21:58.657Z,73.85
2022-11-19T17:24:34.126Z,74.05
2022-11-19T17:27:03.909Z,74.48
2022-11-19T17:29:33.830Z,74.88
2022-11-19T17:32:06.771Z,74.90
2022-11-19T17:34:49.282Z,74.17
2022-11-19T17:37:20.274Z,74.42
2022-11-19T17:39:52.885Z,74.29
2022-11-19T17:42:35.246Z,74.22
2022-11-19T17:45:11.652Z,74.18
2022-11-19T17:47:43.474Z,74.21
2022-11-19T17:50:13.326Z,73.90
2022-11-19T17:52:46.564Z,73.99
2022-11-19T17:55:23.011Z,73.90
2022-11-19T17:57:58.234Z,73.90
2022-11-19T18:00:29.165Z,73.85
2022-11-19T18:03:02.897Z,74.20
2022-11-19T18:05:37.311Z,74.15
2022-11-19T18:08:07.670Z,74.73
2022-11-19T18:10:40.154Z,74.73
2022-11-19T18:13:10.793Z,75.51
2022-11-19T18:15:43.283Z,75.28
2022-11-19T18:18:13.319Z,75.28
2022-11-19T18:20:43.174Z,75.92
2022-11-19T18:23:15.395Z,75.51
2022-11-19T18:25:51.901Z,76.03
2022-11-19T18:28:28.048Z,75.93
2022-11-19T18:30:58.035Z,76.13
2022-11-19T18:33:31.316Z,75.88
2022-11-19T18:36:02.342Z,75.83
2022-11-19T18:38:34.062Z,75.82
2022-11-19T18:41:08.074Z,75.25
2022-11-19T18:43:50.434Z,75.38
2022-11-19T18:46:20.318Z,76.38
2022-11-19T18:48:50.344Z,76.66
2022-11-19T18:51:20.330Z,76.65
2022-11-19T18:53:54.275Z,76.18
2022-11-19T18:56:26.899Z,76.45
2022-11-19T18:59:00.438Z,76.18
2022-11-19T19:01:36.996Z,75.62
2022-11-19T19:04:07.514Z,75.49
2022-11-19T19:06:37.680Z,75.74
2022-11-19T19:09:07.556Z,75.86
2022-11-19T19:12:07.401Z,76.59
2022-11-19T19:14:41.081Z,76.63
2022-11-19T19:17:11.191Z,76.41
2022-11-19T19:19:41.621Z,75.80
2022-11-19T19:22:12.441Z,75.89
2022-11-19T19:24:42.298Z,75.92
2022-11-19T19:27:15.010Z,76.00
2022-11-19T19:29:45.038Z,76.27
2022-11-19T19:32:14.918Z,76.92
2022-11-19T19:34:45.845Z,76.96
2022-11-19T19:37:15.790Z,77.13
2022-11-19T19:39:45.799Z,77.34
2022-11-19T19:42:18.319Z,77.36
2022-11-19T19:44:51.241Z,77.30
2022-11-19T19:47:21.322Z,77.50
2022-11-19T19:49:51.441Z,77.69
2022-11-19T19:52:25.327Z,77.44
2022-11-19T19:54:55.487Z,77.34
2022-11-19T19:57:31.414Z,76.63
2022-11-19T20:00:01.286Z,76.59
2022-11-19T20:02:31.204Z,76.77
2022-11-19T20:05:09.347Z,77.22
2022-11-19T20:07:39.373Z,78.50
2022-11-19T20:10:11.057Z,78.47
2022-11-19T20:12:56.066Z,77.93
2022-11-19T20:15:27.318Z,77.63
2022-11-19T20:17:57.316Z,78.21
2022-11-19T20:20:27.274Z,78.07
2022-11-19T20:22:57.537Z,78.22
2022-11-19T20:25:27.473Z,78.78
2022-11-19T20:27:59.963Z,78.85
2022-11-19T20:30:29.890Z,76.52
2022-11-19T20:32:59.927Z,77.29
2022-11-19T20:35:33.338Z,77.78
2022-11-19T20:38:04.291Z,78.56
2022-11-19T20:40:34.167Z,78.90
2022-11-19T20:43:23.814Z,78.77
2022-11-19T20:45:55.591Z,79.26
2022-11-19T20:48:32.082Z,79.07
2022-11-19T20:51:01.975Z,79.73
2022-11-19T20:53:32.226Z,80.08
2022-11-19T20:56:08.709Z,79.94
2022-11-19T20:58:44.842Z,79.49
2022-11-19T21:01:15.701Z,79.35
2022-11-19T21:03:45.632Z,78.56
2022-11-19T21:06:15.652Z,78.79
2022-11-19T21:08:50.376Z,78.26
2022-11-19T21:11:21.307Z,78.66
2022-11-19T21:13:53.970Z,78.60
2022-11-19T21:16:25.677Z,77.96
2022-11-19T21:18:55.589Z,78.12
2022-11-19T21:21:28.616Z,78.08
2022-11-19T21:23:58.649Z,77.88
2022-11-19T21:26:30.344Z,78.47
2022-11-19T21:29:05.065Z,78.20
2022-11-19T21:31:45.428Z,78.53
2022-11-19T21:34:17.800Z,78.89
2022-11-19T21:36:49.999Z,79.34
2022-11-19T21:39:21.574Z,79.43
2022-11-19T21:41:52.590Z,79.42
2022-11-19T21:44:25.193Z,79.54
2022-11-19T21:46:55.321Z,79.44
2022-11-19T21:49:28.263Z,79.33
2022-11-19T21:51:59.112Z,79.20
2022-11-19T21:54:28.945Z,79.23
2022-11-19T21:56:59.355Z,78.67
2022-11-19T21:59:32.897Z,79.12
2022-11-19T22:02:07.332Z,79.16
2022-11-19T22:04:37.259Z,79.52
2022-11-19T22:07:07.365Z,79.51
2022-11-19T22:09:40.298Z,79.81
2022-11-19T22:12:10.216Z,80.17
2022-11-19T22:14:42.641Z,79.79
2022-11-19T22:17:12.538Z,79.43
2022-11-19T22:19:43.375Z,79.35
2022-11-19T22:22:13.286Z,79.78
2022-11-19T22:24:43.083Z,79.56
2022-11-19T22:27:12.897Z,79.96
2022-11-19T22:29:45.484Z,80.12
2022-11-19T22:32:15.308Z,80.67
2022-11-19T22:34:45.131Z,80.88
2022-11-19T22:37:16.007Z,80.35
2022-11-19T22:39:47.906Z,80.23
2022-11-19T22:42:21.268Z,80.15
2022-11-19T22:44:54.306Z,79.73
2022-11-19T22:47:24.089Z,79.74
2022-11-19T22:49:57.368Z,78.95
2022-11-19T22:52:31.010Z,78.95
2022-11-19T22:55:00.845Z,79.15
2022-11-19T22:57:30.611Z,79.46
2022-11-19T23:00:03.015Z,79.00
2022-11-19T23:02:39.235Z,78.48
2022-11-19T23:05:12.549Z,78.77
2022-11-19T23:07:42.501Z,78.91
2022-11-19T23:10:14.346Z,79.17
2022-11-19T23:12:56.710Z,79.28
2022-11-19T23:15:29.181Z,79.99
2022-11-19T23:17:59.035Z,79.99
2022-11-19T23:20:28.843Z,79.73
2022-11-19T23:23:04.406Z,78.63
2022-11-19T23:25:35.315Z,78.42
2022-11-19T23:28:05.232Z,78.91
2022-11-19T23:30:42.979Z,78.51
2022-11-19T23:33:16.335Z,78.54
2022-11-19T23:35:46.210Z,78.81
2022-11-19T23:38:16.322Z,78.84
2022-11-19T23:40:59.291Z,78.43
2022-11-19T23:43:36.408Z,78.44
2022-11-19T23:46:14.466Z,78.41
2022-11-19T23:48:45.892Z,78.83
2022-11-19T23:51:17.702Z,78.57
2022-11-19T23:53:47.810Z,78.84
2022-11-19T23:56:19.479Z,78.88
2022-11-19T23:58:50.732Z,78.72
